Saint Johnsbury, Vermont
Current Conditions -  °F | °C
As of 7:55 AM on Friday 19 Dec 2014 (Local Time) from KCDA Reporting Station
Overcast Overcast  
Wind Chill: 17°   Ceiling: 1300
Heat Index: 25°   Visibility: 10mi
Dew Point: 19°   Wind: 7mph
Humidity: 80%   Direction: 270°W
Pressure: 29.93"   Gusts: NA
Location:  44.42°N, 72.01°W
Report Text: KCDA 191255Z AUTO 27006KT 10SM OVC013 M04/M07 A2993 RMK AO2 T10401070
Loading
Personal Weather Stations






























Interactive Weather Map New forecast layout! Learn more

10-Day Weather Forecast

Advertisements
Track Severe Weather on mobile